KOVE/OVE METAR and TAF weather

Enter ICAO airport designator
Station Type Date Time Source
KOVE METAR 2020/01/21 17:53 UTC NOAA

KOVE 211753Z AUTO 11009KT 6SM -RA OVC038 11/08 A3013 RMK AO2 SLP204 P0006 60017 T01060078 10117 20094


Station Type Date Time Source
KOVE Decoded METAR 2020/01/21 17:53 UTC NOAA

OROVILLE MUNICIPAL AIRPORT, CA, United States (KOVE) 39-30N 121-37W 58M
Jan 21, 2020 - 12:53 PM EST / 2020.01.21 1753 UTC
Wind: from the ESE (110 degrees) at 10 MPH (9 KT):0
Visibility: 6 mile(s):0
Sky conditions: overcast
Weather: light rain
Precipitation last hour: 0.06 inches
Temperature: 51.1 F (10.6 C)
Dew Point: 46.0 F (7.8 C)
Relative Humidity: 82%
Pressure (altimeter): 30.13 in. Hg (1020 hPa)
ob: KOVE 211753Z AUTO 11009KT 6SM -RA OVC038 11/08 A3013 RMK AO2 SLP204 P0006 60017 T01060078 10117 20094
cycle: 18

Station Type Date Time Source
KOVE TAF UTC NOAA

Error!

Example: see airport list